sensor_id;sensor_type;location;lat;lon;timestamp;temperature;humidity
65203;HTU21D;51788;45.124;38.966;2023-06-22T00:02:17;19.31;76.11
65203;HTU21D;51788;45.124;38.966;2023-06-22T00:04:44;19.28;76.09
65203;HTU21D;51788;45.124;38.966;2023-06-22T00:07:10;19.27;76.20
65203;HTU21D;51788;45.124;38.966;2023-06-22T00:09:36;19.25;76.23
65203;HTU21D;51788;45.124;38.966;2023-06-22T00:12:02;19.25;76.26
65203;HTU21D;51788;45.124;38.966;2023-06-22T00:14:28;19.27;76.08
65203;HTU21D;51788;45.124;38.966;2023-06-22T00:16:54;19.30;75.99
65203;HTU21D;51788;45.124;38.966;2023-06-22T00:19:23;19.37;75.89
65203;HTU21D;51788;45.124;38.966;2023-06-22T00:21:50;19.39;75.73
65203;HTU21D;51788;45.124;38.966;2023-06-22T00:24:20;19.39;75.57
65203;HTU21D;51788;45.124;38.966;2023-06-22T00:26:47;19.39;75.57
65203;HTU21D;51788;45.124;38.966;2023-06-22T00:29:13;19.38;75.52
65203;HTU21D;51788;45.124;38.966;2023-06-22T00:31:39;19.38;75.59
65203;HTU21D;51788;45.124;38.966;2023-06-22T00:34:05;19.38;75.54
65203;HTU21D;51788;45.124;38.966;2023-06-22T00:36:33;19.35;75.53
65203;HTU21D;51788;45.124;38.966;2023-06-22T00:38:59;19.31;75.53
65203;HTU21D;51788;45.124;38.966;2023-06-22T00:41:24;19.28;75.60
65203;HTU21D;51788;45.124;38.966;2023-06-22T00:43:54;19.29;75.60
65203;HTU21D;51788;45.124;38.966;2023-06-22T00:46:21;19.25;75.64
65203;HTU21D;51788;45.124;38.966;2023-06-22T00:48:49;19.23;75.70
65203;HTU21D;51788;45.124;38.966;2023-06-22T00:51:15;19.22;75.70
65203;HTU21D;51788;45.124;38.966;2023-06-22T00:53:42;19.21;75.71
65203;HTU21D;51788;45.124;38.966;2023-06-22T00:56:10;19.18;75.71
65203;HTU21D;51788;45.124;38.966;2023-06-22T00:58:38;19.18;75.70
65203;HTU21D;51788;45.124;38.966;2023-06-22T01:01:07;19.18;75.73
65203;HTU21D;51788;45.124;38.966;2023-06-22T01:03:33;19.16;75.64
65203;HTU21D;51788;45.124;38.966;2023-06-22T01:06:07;19.16;75.79
65203;HTU21D;51788;45.124;38.966;2023-06-22T01:08:46;19.16;75.73
65203;HTU21D;51788;45.124;38.966;2023-06-22T01:11:34;19.16;75.78
65203;HTU21D;51788;45.124;38.966;2023-06-22T01:14:43;19.12;75.79
65203;HTU21D;51788;45.124;38.966;2023-06-22T01:17:09;19.09;75.62
65203;HTU21D;51788;45.124;38.966;2023-06-22T01:19:44;19.06;75.79
65203;HTU21D;51788;45.124;38.966;2023-06-22T01:22:16;19.05;75.89
65203;HTU21D;51788;45.124;38.966;2023-06-22T01:24:55;19.05;76.03
65203;HTU21D;51788;45.124;38.966;2023-06-22T01:29:55;19.03;76.02
65203;HTU21D;51788;45.124;38.966;2023-06-22T01:32:33;19.03;76.01
65203;HTU21D;51788;45.124;38.966;2023-06-22T01:35:01;19.03;75.95
65203;HTU21D;51788;45.124;38.966;2023-06-22T01:37:30;19.00;76.05
65203;HTU21D;51788;45.124;38.966;2023-06-22T01:39:58;19.00;76.11
65203;HTU21D;51788;45.124;38.966;2023-06-22T01:42:25;19.02;76.15
65203;HTU21D;51788;45.124;38.966;2023-06-22T01:44:55;19.03;76.18
65203;HTU21D;51788;45.124;38.966;2023-06-22T01:47:22;19.00;76.18
65203;HTU21D;51788;45.124;38.966;2023-06-22T01:49:49;19.01;76.24
65203;HTU21D;51788;45.124;38.966;2023-06-22T01:52:18;19.00;76.29
65203;HTU21D;51788;45.124;38.966;2023-06-22T01:54:44;19.00;76.36
65203;HTU21D;51788;45.124;38.966;2023-06-22T01:57:11;19.00;76.37
65203;HTU21D;51788;45.124;38.966;2023-06-22T02:00:03;19.00;76.45
65203;HTU21D;51788;45.124;38.966;2023-06-22T02:02:52;19.03;76.32
65203;HTU21D;51788;45.124;38.966;2023-06-22T02:05:19;19.08;76.18
65203;HTU21D;51788;45.124;38.966;2023-06-22T02:08:00;19.12;76.15
65203;HTU21D;51788;45.124;38.966;2023-06-22T02:10:31;19.15;76.06
65203;HTU21D;51788;45.124;38.966;2023-06-22T02:12:59;19.18;76.05
65203;HTU21D;51788;45.124;38.966;2023-06-22T02:15:25;19.23;76.02
65203;HTU21D;51788;45.124;38.966;2023-06-22T02:17:54;19.26;76.05
65203;HTU21D;51788;45.124;38.966;2023-06-22T02:20:21;19.21;76.37
65203;HTU21D;51788;45.124;38.966;2023-06-22T02:22:47;19.15;76.56
65203;HTU21D;51788;45.124;38.966;2023-06-22T02:25:13;19.15;76.53
65203;HTU21D;51788;45.124;38.966;2023-06-22T02:27:40;19.16;76.53
65203;HTU21D;51788;45.124;38.966;2023-06-22T02:30:09;19.20;76.52
65203;HTU21D;51788;45.124;38.966;2023-06-22T02:32:37;19.26;76.22
65203;HTU21D;51788;45.124;38.966;2023-06-22T02:35:10;19.29;76.16
65203;HTU21D;51788;45.124;38.966;2023-06-22T02:37:37;19.35;76.15
65203;HTU21D;51788;45.124;38.966;2023-06-22T02:40:10;19.43;75.99
65203;HTU21D;51788;45.124;38.966;2023-06-22T02:42:37;19.52;75.99
65203;HTU21D;51788;45.124;38.966;2023-06-22T02:45:03;19.63;75.78
65203;HTU21D;51788;45.124;38.966;2023-06-22T02:47:29;19.72;75.67
65203;HTU21D;51788;45.124;38.966;2023-06-22T02:49:56;19.84;75.40
65203;HTU21D;51788;45.124;38.966;2023-06-22T02:52:23;19.97;75.24
65203;HTU21D;51788;45.124;38.966;2023-06-22T02:54:49;20.09;75.02
65203;HTU21D;51788;45.124;38.966;2023-06-22T02:57:14;20.15;74.96
65203;HTU21D;51788;45.124;38.966;2023-06-22T02:59:42;20.25;74.94
65203;HTU21D;51788;45.124;38.966;2023-06-22T03:02:10;20.35;74.72
65203;HTU21D;51788;45.124;38.966;2023-06-22T03:04:37;20.43;74.62
65203;HTU21D;51788;45.124;38.966;2023-06-22T03:07:03;20.49;74.70
65203;HTU21D;51788;45.124;38.966;2023-06-22T03:09:31;20.61;74.55
65203;HTU21D;51788;45.124;38.966;2023-06-22T03:11:57;20.72;74.38
65203;HTU21D;51788;45.124;38.966;2023-06-22T03:14:28;20.76;74.34
65203;HTU21D;51788;45.124;38.966;2023-06-22T03:16:54;20.85;74.23
65203;HTU21D;51788;45.124;38.966;2023-06-22T03:19:20;20.94;74.02
65203;HTU21D;51788;45.124;38.966;2023-06-22T03:21:47;21.05;73.81
65203;HTU21D;51788;45.124;38.966;2023-06-22T03:24:13;21.15;73.54
65203;HTU21D;51788;45.124;38.966;2023-06-22T03:26:39;21.16;73.54
65203;HTU21D;51788;45.124;38.966;2023-06-22T03:29:05;21.18;73.39
65203;HTU21D;51788;45.124;38.966;2023-06-22T03:31:34;21.24;73.32
65203;HTU21D;51788;45.124;38.966;2023-06-22T03:34:00;21.33;72.96
65203;HTU21D;51788;45.124;38.966;2023-06-22T03:36:25;21.35;72.87
65203;HTU21D;51788;45.124;38.966;2023-06-22T03:38:52;21.40;72.83
65203;HTU21D;51788;45.124;38.966;2023-06-22T03:41:18;21.47;72.66
65203;HTU21D;51788;45.124;38.966;2023-06-22T03:43:44;21.50;72.49
65203;HTU21D;51788;45.124;38.966;2023-06-22T03:46:10;21.57;72.45
65203;HTU21D;51788;45.124;38.966;2023-06-22T03:48:36;21.65;72.23
65203;HTU21D;51788;45.124;38.966;2023-06-22T03:51:02;21.69;72.19
65203;HTU21D;51788;45.124;38.966;2023-06-22T03:53:29;21.75;71.96
65203;HTU21D;51788;45.124;38.966;2023-06-22T03:55:55;21.80;71.80
65203;HTU21D;51788;45.124;38.966;2023-06-22T03:58:21;21.85;71.64
65203;HTU21D;51788;45.124;38.966;2023-06-22T04:00:52;21.88;71.55
65203;HTU21D;51788;45.124;38.966;2023-06-22T04:03:18;21.94;71.57
65203;HTU21D;51788;45.124;38.966;2023-06-22T04:05:45;22.02;71.22
65203;HTU21D;51788;45.124;38.966;2023-06-22T04:08:14;22.07;71.04
65203;HTU21D;51788;45.124;38.966;2023-06-22T04:10:40;22.13;71.09
65203;HTU21D;51788;45.124;38.966;2023-06-22T04:13:07;22.22;70.81
65203;HTU21D;51788;45.124;38.966;2023-06-22T04:15:33;22.28;70.54
65203;HTU21D;51788;45.124;38.966;2023-06-22T04:17:59;22.32;70.65
65203;HTU21D;51788;45.124;38.966;2023-06-22T04:20:25;22.42;70.46
65203;HTU21D;51788;45.124;38.966;2023-06-22T04:22:54;22.41;70.44
65203;HTU21D;51788;45.124;38.966;2023-06-22T04:25:20;22.42;70.31
65203;HTU21D;51788;45.124;38.966;2023-06-22T04:27:47;22.36;70.29
65203;HTU21D;51788;45.124;38.966;2023-06-22T04:30:14;22.38;70.48
65203;HTU21D;51788;45.124;38.966;2023-06-22T04:32:44;22.52;70.29
65203;HTU21D;51788;45.124;38.966;2023-06-22T04:35:10;22.62;70.12
65203;HTU21D;51788;45.124;38.966;2023-06-22T04:37:36;22.65;69.90
65203;HTU21D;51788;45.124;38.966;2023-06-22T04:40:03;22.69;69.71
65203;HTU21D;51788;45.124;38.966;2023-06-22T04:42:33;22.71;69.56
65203;HTU21D;51788;45.124;38.966;2023-06-22T04:44:59;22.83;69.36
65203;HTU21D;51788;45.124;38.966;2023-06-22T04:47:25;22.88;69.23
65203;HTU21D;51788;45.124;38.966;2023-06-22T04:49:51;22.95;69.20
65203;HTU21D;51788;45.124;38.966;2023-06-22T04:52:17;23.01;69.10
65203;HTU21D;51788;45.124;38.966;2023-06-22T04:54:43;22.99;68.89
65203;HTU21D;51788;45.124;38.966;2023-06-22T04:57:16;22.97;68.80
65203;HTU21D;51788;45.124;38.966;2023-06-22T04:59:43;22.95;69.05
65203;HTU21D;51788;45.124;38.966;2023-06-22T05:02:09;23.09;69.04
65203;HTU21D;51788;45.124;38.966;2023-06-22T05:04:35;23.25;68.77
65203;HTU21D;51788;45.124;38.966;2023-06-22T05:07:04;23.38;68.59
65203;HTU21D;51788;45.124;38.966;2023-06-22T05:09:30;23.34;68.60
65203;HTU21D;51788;45.124;38.966;2023-06-22T05:11:57;23.32;68.54
65203;HTU21D;51788;45.124;38.966;2023-06-22T05:14:23;23.32;68.44
65203;HTU21D;51788;45.124;38.966;2023-06-22T05:16:49;23.39;68.20
65203;HTU21D;51788;45.124;38.966;2023-06-22T05:19:17;23.44;68.16
65203;HTU21D;51788;45.124;38.966;2023-06-22T05:21:43;23.57;68.01
65203;HTU21D;51788;45.124;38.966;2023-06-22T05:24:09;23.67;67.49
65203;HTU21D;51788;45.124;38.966;2023-06-22T05:26:35;23.73;67.21
65203;HTU21D;51788;45.124;38.966;2023-06-22T05:29:02;23.83;66.79
65203;HTU21D;51788;45.124;38.966;2023-06-22T05:31:29;23.83;66.88
65203;HTU21D;51788;45.124;38.966;2023-06-22T05:33:56;23.86;67.05
65203;HTU21D;51788;45.124;38.966;2023-06-22T05:36:22;23.92;66.83
65203;HTU21D;51788;45.124;38.966;2023-06-22T05:38:52;23.97;66.64
65203;HTU21D;51788;45.124;38.966;2023-06-22T05:41:18;23.96;66.66
65203;HTU21D;51788;45.124;38.966;2023-06-22T05:43:44;23.95;66.45
65203;HTU21D;51788;45.124;38.966;2023-06-22T05:46:10;24.00;66.30
65203;HTU21D;51788;45.124;38.966;2023-06-22T05:48:36;23.94;66.32
65203;HTU21D;51788;45.124;38.966;2023-06-22T05:51:02;23.88;66.41
65203;HTU21D;51788;45.124;38.966;2023-06-22T05:53:28;23.90;66.59
65203;HTU21D;51788;45.124;38.966;2023-06-22T05:55:54;24.03;66.54
65203;HTU21D;51788;45.124;38.966;2023-06-22T05:58:20;24.16;65.97
65203;HTU21D;51788;45.124;38.966;2023-06-22T06:00:46;24.24;65.93
65203;HTU21D;51788;45.124;38.966;2023-06-22T06:03:12;24.30;65.84
65203;HTU21D;51788;45.124;38.966;2023-06-22T06:05:42;24.28;65.75
65203;HTU21D;51788;45.124;38.966;2023-06-22T06:08:09;24.18;65.65
65203;HTU21D;51788;45.124;38.966;2023-06-22T06:10:36;24.24;65.55
65203;HTU21D;51788;45.124;38.966;2023-06-22T06:13:03;24.34;65.07
65203;HTU21D;51788;45.124;38.966;2023-06-22T06:15:31;24.32;64.92
65203;HTU21D;51788;45.124;38.966;2023-06-22T06:17:57;24.38;64.99
65203;HTU21D;51788;45.124;38.966;2023-06-22T06:20:26;24.46;64.86
65203;HTU21D;51788;45.124;38.966;2023-06-22T06:22:57;24.56;64.92
65203;HTU21D;51788;45.124;38.966;2023-06-22T06:25:24;24.65;64.35
65203;HTU21D;51788;45.124;38.966;2023-06-22T06:27:51;24.59;64.62
65203;HTU21D;51788;45.124;38.966;2023-06-22T06:30:18;24.61;64.54
65203;HTU21D;51788;45.124;38.966;2023-06-22T06:32:45;24.68;64.24
65203;HTU21D;51788;45.124;38.966;2023-06-22T06:35:12;24.72;64.14
65203;HTU21D;51788;45.124;38.966;2023-06-22T06:37:40;24.82;64.14
65203;HTU21D;51788;45.124;38.966;2023-06-22T06:40:07;24.86;64.07
65203;HTU21D;51788;45.124;38.966;2023-06-22T06:42:43;24.94;63.81
65203;HTU21D;51788;45.124;38.966;2023-06-22T06:45:21;25.07;62.46
65203;HTU21D;51788;45.124;38.966;2023-06-22T06:47:49;25.05;62.45
65203;HTU21D;51788;45.124;38.966;2023-06-22T06:50:16;25.06;62.42
65203;HTU21D;51788;45.124;38.966;2023-06-22T06:52:42;24.97;62.58
65203;HTU21D;51788;45.124;38.966;2023-06-22T06:55:08;25.02;62.79
65203;HTU21D;51788;45.124;38.966;2023-06-22T06:57:38;25.12;61.84
65203;HTU21D;51788;45.124;38.966;2023-06-22T07:00:08;25.16;61.76
65203;HTU21D;51788;45.124;38.966;2023-06-22T07:02:39;25.17;61.48
65203;HTU21D;51788;45.124;38.966;2023-06-22T07:05:06;25.18;61.72
65203;HTU21D;51788;45.124;38.966;2023-06-22T07:07:32;25.35;61.47
65203;HTU21D;51788;45.124;38.966;2023-06-22T07:09:59;25.49;60.70
65203;HTU21D;51788;45.124;38.966;2023-06-22T07:12:27;25.61;59.36
65203;HTU21D;51788;45.124;38.966;2023-06-22T07:14:53;25.56;59.66
65203;HTU21D;51788;45.124;38.966;2023-06-22T07:17:19;25.56;59.40
65203;HTU21D;51788;45.124;38.966;2023-06-22T07:19:45;25.64;58.47
65203;HTU21D;51788;45.124;38.966;2023-06-22T07:22:11;25.65;58.08
65203;HTU21D;51788;45.124;38.966;2023-06-22T07:24:37;25.65;57.79
65203;HTU21D;51788;45.124;38.966;2023-06-22T07:27:03;25.69;57.18
65203;HTU21D;51788;45.124;38.966;2023-06-22T07:29:32;25.81;56.61
65203;HTU21D;51788;45.124;38.966;2023-06-22T07:31:58;25.79;56.84
65203;HTU21D;51788;45.124;38.966;2023-06-22T07:34:26;25.79;56.87
65203;HTU21D;51788;45.124;38.966;2023-06-22T07:36:52;25.83;56.45
65203;HTU21D;51788;45.124;38.966;2023-06-22T07:39:18;25.91;55.78
65203;HTU21D;51788;45.124;38.966;2023-06-22T07:41:44;25.98;55.46
65203;HTU21D;51788;45.124;38.966;2023-06-22T07:44:10;26.08;54.24
65203;HTU21D;51788;45.124;38.966;2023-06-22T07:46:36;26.12;53.78
65203;HTU21D;51788;45.124;38.966;2023-06-22T07:49:02;26.16;53.80
65203;HTU21D;51788;45.124;38.966;2023-06-22T07:51:28;26.13;53.01
65203;HTU21D;51788;45.124;38.966;2023-06-22T07:53:54;26.18;51.77
65203;HTU21D;51788;45.124;38.966;2023-06-22T07:56:20;26.15;51.14
65203;HTU21D;51788;45.124;38.966;2023-06-22T07:58:47;26.08;51.67
65203;HTU21D;51788;45.124;38.966;2023-06-22T08:01:16;26.16;50.84
65203;HTU21D;51788;45.124;38.966;2023-06-22T08:03:42;26.23;49.90
65203;HTU21D;51788;45.124;38.966;2023-06-22T08:06:09;26.23;50.20
65203;HTU21D;51788;45.124;38.966;2023-06-22T08:08:36;26.28;50.84
65203;HTU21D;51788;45.124;38.966;2023-06-22T08:11:02;26.39;49.65
65203;HTU21D;51788;45.124;38.966;2023-06-22T08:13:28;26.40;50.22
65203;HTU21D;51788;45.124;38.966;2023-06-22T08:15:54;26.54;50.21
65203;HTU21D;51788;45.124;38.966;2023-06-22T08:18:20;26.60;49.53
65203;HTU21D;51788;45.124;38.966;2023-06-22T08:20:46;26.55;49.54
65203;HTU21D;51788;45.124;38.966;2023-06-22T08:23:12;26.57;49.31
65203;HTU21D;51788;45.124;38.966;2023-06-22T08:25:38;26.54;49.62
65203;HTU21D;51788;45.124;38.966;2023-06-22T08:28:04;26.49;49.50
65203;HTU21D;51788;45.124;38.966;2023-06-22T08:30:30;26.52;49.53
65203;HTU21D;51788;45.124;38.966;2023-06-22T08:32:56;26.57;49.61
65203;HTU21D;51788;45.124;38.966;2023-06-22T08:35:24;26.55;49.20
65203;HTU21D;51788;45.124;38.966;2023-06-22T08:37:51;26.56;48.81
65203;HTU21D;51788;45.124;38.966;2023-06-22T08:40:22;26.57;48.93
65203;HTU21D;51788;45.124;38.966;2023-06-22T08:42:48;26.60;48.89
65203;HTU21D;51788;45.124;38.966;2023-06-22T08:45:15;26.54;49.31
65203;HTU21D;51788;45.124;38.966;2023-06-22T08:47:42;26.54;48.45
65203;HTU21D;51788;45.124;38.966;2023-06-22T08:50:09;26.60;48.24
65203;HTU21D;51788;45.124;38.966;2023-06-22T08:52:36;26.63;48.41
65203;HTU21D;51788;45.124;38.966;2023-06-22T08:55:03;26.67;47.73
65203;HTU21D;51788;45.124;38.966;2023-06-22T08:57:29;26.66;47.98
65203;HTU21D;51788;45.124;38.966;2023-06-22T08:59:56;26.70;48.11
65203;HTU21D;51788;45.124;38.966;2023-06-22T09:02:28;26.71;47.57
65203;HTU21D;51788;45.124;38.966;2023-06-22T09:05:02;26.73;47.74
65203;HTU21D;51788;45.124;38.966;2023-06-22T09:07:28;26.78;47.45
65203;HTU21D;51788;45.124;38.966;2023-06-22T09:09:55;26.70;47.72
65203;HTU21D;51788;45.124;38.966;2023-06-22T09:12:22;26.71;47.85
65203;HTU21D;51788;45.124;38.966;2023-06-22T09:14:51;26.78;47.91
65203;HTU21D;51788;45.124;38.966;2023-06-22T09:17:17;26.87;47.60
65203;HTU21D;51788;45.124;38.966;2023-06-22T09:19:43;26.97;47.83
65203;HTU21D;51788;45.124;38.966;2023-06-22T09:22:09;27.11;47.19
65203;HTU21D;51788;45.124;38.966;2023-06-22T09:24:35;27.05;46.57
65203;HTU21D;51788;45.124;38.966;2023-06-22T09:27:01;26.96;46.86
65203;HTU21D;51788;45.124;38.966;2023-06-22T09:29:27;26.94;47.38
65203;HTU21D;51788;45.124;38.966;2023-06-22T09:31:53;27.01;46.57
65203;HTU21D;51788;45.124;38.966;2023-06-22T09:34:19;27.08;46.67
65203;HTU21D;51788;45.124;38.966;2023-06-22T09:36:46;27.07;46.83
65203;HTU21D;51788;45.124;38.966;2023-06-22T09:39:13;27.17;46.25
65203;HTU21D;51788;45.124;38.966;2023-06-22T09:41:39;27.16;46.02
65203;HTU21D;51788;45.124;38.966;2023-06-22T09:44:04;27.13;46.06
65203;HTU21D;51788;45.124;38.966;2023-06-22T09:46:30;27.16;45.92
65203;HTU21D;51788;45.124;38.966;2023-06-22T09:48:56;27.11;46.22
65203;HTU21D;51788;45.124;38.966;2023-06-22T09:51:23;27.19;45.90
65203;HTU21D;51788;45.124;38.966;2023-06-22T09:53:52;27.29;46.22
65203;HTU21D;51788;45.124;38.966;2023-06-22T09:56:21;27.35;45.64
65203;HTU21D;51788;45.124;38.966;2023-06-22T09:58:48;27.29;45.94
65203;HTU21D;51788;45.124;38.966;2023-06-22T10:01:16;27.27;46.01
65203;HTU21D;51788;45.124;38.966;2023-06-22T10:03:42;27.32;45.59
65203;HTU21D;51788;45.124;38.966;2023-06-22T10:06:08;27.38;45.54
65203;HTU21D;51788;45.124;38.966;2023-06-22T10:08:37;27.85;44.66
65203;HTU21D;51788;45.124;38.966;2023-06-22T10:11:03;28.74;42.61
65203;HTU21D;51788;45.124;38.966;2023-06-22T10:13:29;28.37;42.70
65203;HTU21D;51788;45.124;38.966;2023-06-22T10:15:55;28.08;43.49
65203;HTU21D;51788;45.124;38.966;2023-06-22T10:18:21;27.88;43.69
65203;HTU21D;51788;45.124;38.966;2023-06-22T10:20:49;27.60;44.42
65203;HTU21D;51788;45.124;38.966;2023-06-22T10:23:21;27.58;44.22
65203;HTU21D;51788;45.124;38.966;2023-06-22T10:25:47;27.47;44.43
65203;HTU21D;51788;45.124;38.966;2023-06-22T10:28:13;27.45;45.09
65203;HTU21D;51788;45.124;38.966;2023-06-22T10:30:40;27.66;44.60
65203;HTU21D;51788;45.124;38.966;2023-06-22T10:33:11;27.66;43.56
65203;HTU21D;51788;45.124;38.966;2023-06-22T10:35:37;27.57;44.19
65203;HTU21D;51788;45.124;38.966;2023-06-22T10:38:04;27.50;44.22
65203;HTU21D;51788;45.124;38.966;2023-06-22T10:40:30;27.42;44.51
65203;HTU21D;51788;45.124;38.966;2023-06-22T10:42:56;27.54;44.39
65203;HTU21D;51788;45.124;38.966;2023-06-22T10:45:22;27.66;44.03
65203;HTU21D;51788;45.124;38.966;2023-06-22T10:47:48;27.64;44.12
65203;HTU21D;51788;45.124;38.966;2023-06-22T10:50:14;27.69;43.16
65203;HTU21D;51788;45.124;38.966;2023-06-22T10:52:41;27.43;43.11
65203;HTU21D;51788;45.124;38.966;2023-06-22T10:55:10;27.31;43.39
65203;HTU21D;51788;45.124;38.966;2023-06-22T10:57:36;27.43;43.26
65203;HTU21D;51788;45.124;38.966;2023-06-22T11:00:03;27.57;42.81
65203;HTU21D;51788;45.124;38.966;2023-06-22T11:02:31;27.54;42.30
65203;HTU21D;51788;45.124;38.966;2023-06-22T11:04:57;27.50;42.73
65203;HTU21D;51788;45.124;38.966;2023-06-22T11:07:26;27.65;42.65
65203;HTU21D;51788;45.124;38.966;2023-06-22T11:09:54;27.67;42.12
65203;HTU21D;51788;45.124;38.966;2023-06-22T11:12:20;27.66;42.62
65203;HTU21D;51788;45.124;38.966;2023-06-22T11:14:46;27.69;42.86
65203;HTU21D;51788;45.124;38.966;2023-06-22T11:17:12;27.72;42.84
65203;HTU21D;51788;45.124;38.966;2023-06-22T11:19:38;27.73;42.97
65203;HTU21D;51788;45.124;38.966;2023-06-22T11:22:04;27.75;42.27
65203;HTU21D;51788;45.124;38.966;2023-06-22T11:24:30;27.64;42.39
65203;HTU21D;51788;45.124;38.966;2023-06-22T11:26:57;27.60;41.61
65203;HTU21D;51788;45.124;38.966;2023-06-22T11:29:23;27.60;41.49
65203;HTU21D;51788;45.124;38.966;2023-06-22T11:31:49;27.55;41.70
65203;HTU21D;51788;45.124;38.966;2023-06-22T11:34:15;27.59;41.60
65203;HTU21D;51788;45.124;38.966;2023-06-22T11:36:41;27.64;41.87
65203;HTU21D;51788;45.124;38.966;2023-06-22T11:39:08;27.64;41.62
65203;HTU21D;51788;45.124;38.966;2023-06-22T11:41:35;27.65;41.97
65203;HTU21D;51788;45.124;38.966;2023-06-22T11:44:01;27.76;41.71
65203;HTU21D;51788;45.124;38.966;2023-06-22T11:46:27;27.80;41.59
65203;HTU21D;51788;45.124;38.966;2023-06-22T11:48:53;27.78;41.33
65203;HTU21D;51788;45.124;38.966;2023-06-22T11:51:19;27.63;41.54
65203;HTU21D;51788;45.124;38.966;2023-06-22T11:53:45;27.55;41.81
65203;HTU21D;51788;45.124;38.966;2023-06-22T11:56:11;27.54;41.52
65203;HTU21D;51788;45.124;38.966;2023-06-22T11:58:36;27.49;41.55
65203;HTU21D;51788;45.124;38.966;2023-06-22T12:01:02;27.57;41.58
65203;HTU21D;51788;45.124;38.966;2023-06-22T12:03:28;27.63;41.39
65203;HTU21D;51788;45.124;38.966;2023-06-22T12:05:55;27.58;41.29
65203;HTU21D;51788;45.124;38.966;2023-06-22T12:08:21;27.46;41.29
65203;HTU21D;51788;45.124;38.966;2023-06-22T12:10:49;27.40;40.71
65203;HTU21D;51788;45.124;38.966;2023-06-22T12:13:15;27.37;41.03
65203;HTU21D;51788;45.124;38.966;2023-06-22T12:15:41;27.42;41.11
65203;HTU21D;51788;45.124;38.966;2023-06-22T12:18:07;27.32;40.97
65203;HTU21D;51788;45.124;38.966;2023-06-22T12:20:34;27.30;41.18
65203;HTU21D;51788;45.124;38.966;2023-06-22T12:23:01;27.39;40.88
65203;HTU21D;51788;45.124;38.966;2023-06-22T12:25:27;27.27;41.59
65203;HTU21D;51788;45.124;38.966;2023-06-22T12:27:53;27.34;41.84
65203;HTU21D;51788;45.124;38.966;2023-06-22T12:30:19;27.41;41.31
65203;HTU21D;51788;45.124;38.966;2023-06-22T12:32:45;27.42;41.39
65203;HTU21D;51788;45.124;38.966;2023-06-22T12:35:11;27.43;41.13
65203;HTU21D;51788;45.124;38.966;2023-06-22T12:37:42;27.41;41.55
65203;HTU21D;51788;45.124;38.966;2023-06-22T12:40:09;27.41;41.55
65203;HTU21D;51788;45.124;38.966;2023-06-22T12:42:35;27.40;41.56
65203;HTU21D;51788;45.124;38.966;2023-06-22T12:45:01;27.41;41.46
65203;HTU21D;51788;45.124;38.966;2023-06-22T12:47:27;27.39;41.17
65203;HTU21D;51788;45.124;38.966;2023-06-22T12:49:53;27.43;41.14
65203;HTU21D;51788;45.124;38.966;2023-06-22T12:52:19;27.54;41.21
65203;HTU21D;51788;45.124;38.966;2023-06-22T12:54:45;27.57;41.00
65203;HTU21D;51788;45.124;38.966;2023-06-22T12:57:11;27.49;41.04
65203;HTU21D;51788;45.124;38.966;2023-06-22T12:59:37;27.40;41.06
65203;HTU21D;51788;45.124;38.966;2023-06-22T13:02:03;27.43;41.16
65203;HTU21D;51788;45.124;38.966;2023-06-22T13:04:29;27.42;41.31
65203;HTU21D;51788;45.124;38.966;2023-06-22T13:06:55;27.40;41.16
65203;HTU21D;51788;45.124;38.966;2023-06-22T13:09:21;27.38;40.88
65203;HTU21D;51788;45.124;38.966;2023-06-22T13:11:47;27.26;40.92
65203;HTU21D;51788;45.124;38.966;2023-06-22T13:14:13;27.16;41.02
65203;HTU21D;51788;45.124;38.966;2023-06-22T13:16:39;27.23;41.15
65203;HTU21D;51788;45.124;38.966;2023-06-22T13:19:05;27.29;40.49
65203;HTU21D;51788;45.124;38.966;2023-06-22T13:21:31;27.22;40.72
65203;HTU21D;51788;45.124;38.966;2023-06-22T13:23:57;27.23;40.81
65203;HTU21D;51788;45.124;38.966;2023-06-22T13:26:24;27.24;40.47
65203;HTU21D;51788;45.124;38.966;2023-06-22T13:28:50;27.26;40.17
65203;HTU21D;51788;45.124;38.966;2023-06-22T13:31:16;27.24;40.39
65203;HTU21D;51788;45.124;38.966;2023-06-22T13:33:42;27.27;40.55
65203;HTU21D;51788;45.124;38.966;2023-06-22T13:36:10;27.29;40.27
65203;HTU21D;51788;45.124;38.966;2023-06-22T13:38:36;27.23;40.01
65203;HTU21D;51788;45.124;38.966;2023-06-22T13:41:05;27.11;40.05
65203;HTU21D;51788;45.124;38.966;2023-06-22T13:43:31;27.16;39.41
65203;HTU21D;51788;45.124;38.966;2023-06-22T13:45:57;27.16;39.20
65203;HTU21D;51788;45.124;38.966;2023-06-22T13:48:23;27.09;38.77
65203;HTU21D;51788;45.124;38.966;2023-06-22T13:50:52;27.07;38.91
65203;HTU21D;51788;45.124;38.966;2023-06-22T13:53:18;27.00;38.96
65203;HTU21D;51788;45.124;38.966;2023-06-22T13:55:44;26.95;38.91
65203;HTU21D;51788;45.124;38.966;2023-06-22T13:58:10;26.91;39.18
65203;HTU21D;51788;45.124;38.966;2023-06-22T14:00:36;26.90;39.49
65203;HTU21D;51788;45.124;38.966;2023-06-22T14:03:02;26.93;39.20
65203;HTU21D;51788;45.124;38.966;2023-06-22T14:05:28;26.87;38.76
65203;HTU21D;51788;45.124;38.966;2023-06-22T14:07:54;26.81;38.26
65203;HTU21D;51788;45.124;38.966;2023-06-22T14:10:20;26.76;38.46
65203;HTU21D;51788;45.124;38.966;2023-06-22T14:12:46;26.80;38.34
65203;HTU21D;51788;45.124;38.966;2023-06-22T14:15:12;26.77;38.37
65203;HTU21D;51788;45.124;38.966;2023-06-22T14:17:38;26.79;38.20
65203;HTU21D;51788;45.124;38.966;2023-06-22T14:20:05;26.77;37.95
65203;HTU21D;51788;45.124;38.966;2023-06-22T14:22:33;26.72;37.54
65203;HTU21D;51788;45.124;38.966;2023-06-22T14:25:01;26.68;37.10
65203;HTU21D;51788;45.124;38.966;2023-06-22T14:27:27;26.68;36.92
65203;HTU21D;51788;45.124;38.966;2023-06-22T14:29:53;26.65;36.51
65203;HTU21D;51788;45.124;38.966;2023-06-22T14:32:19;26.62;36.57
65203;HTU21D;51788;45.124;38.966;2023-06-22T14:34:45;26.64;36.71
65203;HTU21D;51788;45.124;38.966;2023-06-22T14:37:11;26.65;36.81
65203;HTU21D;51788;45.124;38.966;2023-06-22T14:39:39;26.66;36.32
65203;HTU21D;51788;45.124;38.966;2023-06-22T14:42:08;26.62;36.50
65203;HTU21D;51788;45.124;38.966;2023-06-22T14:44:34;26.57;36.01
65203;HTU21D;51788;45.124;38.966;2023-06-22T14:47:00;26.53;35.96
65203;HTU21D;51788;45.124;38.966;2023-06-22T14:49:26;26.51;36.37
65203;HTU21D;51788;45.124;38.966;2023-06-22T14:51:52;26.52;36.84
65203;HTU21D;51788;45.124;38.966;2023-06-22T14:54:18;26.50;37.12
65203;HTU21D;51788;45.124;38.966;2023-06-22T14:56:44;26.51;37.31
65203;HTU21D;51788;45.124;38.966;2023-06-22T14:59:12;26.50;37.43
65203;HTU21D;51788;45.124;38.966;2023-06-22T15:01:38;26.45;37.36
65203;HTU21D;51788;45.124;38.966;2023-06-22T15:04:04;26.41;37.14
65203;HTU21D;51788;45.124;38.966;2023-06-22T15:06:30;26.32;37.48